createdAt,value
2022-12-01T00:03:26.286Z,3.79
2022-12-01T00:08:29.383Z,3.61
2022-12-01T00:13:32.198Z,3.49
2022-12-01T00:18:34.311Z,3.17
2022-12-01T00:23:36.567Z,3.20
2022-12-01T00:28:39.231Z,3.13
2022-12-01T00:33:41.369Z,2.83
2022-12-01T00:38:43.658Z,2.48
2022-12-01T00:43:45.721Z,2.14
2022-12-01T00:48:48.182Z,1.91
2022-12-01T00:53:50.364Z,1.73
2022-12-01T00:58:52.545Z,1.61
2022-12-01T01:03:54.643Z,1.63
2022-12-01T01:08:56.742Z,1.78
2022-12-01T01:13:59.611Z,1.71
2022-12-01T01:19:01.693Z,1.39
2022-12-01T01:24:04.000Z,1.38
2022-12-01T01:29:07.783Z,1.32
2022-12-01T01:34:09.876Z,1.56
2022-12-01T01:39:12.009Z,1.62
2022-12-01T01:44:45.323Z,1.92
2022-12-01T01:49:48.884Z,1.88
2022-12-01T01:54:53.921Z,1.71
2022-12-01T02:00:02.255Z,1.74
2022-12-01T02:05:10.951Z,1.77
2022-12-01T02:10:14.718Z,1.43
2022-12-01T02:15:19.849Z,1.02
2022-12-01T02:20:59.657Z,0.72
2022-12-01T02:26:29.701Z,0.62
2022-12-01T02:32:05.211Z,0.61
2022-12-01T02:37:13.118Z,0.44
2022-12-01T02:42:40.284Z,0.36
2022-12-01T02:47:44.841Z,0.24
2022-12-01T02:52:47.731Z,0.29
2022-12-01T02:57:49.801Z,0.21
2022-12-01T03:03:26.753Z,0.17
2022-12-01T03:08:34.603Z,0.29
2022-12-01T03:14:11.345Z,0.17
2022-12-01T03:19:23.098Z,0.15
2022-12-01T03:24:29.446Z,0.07
2022-12-01T03:29:43.491Z,0.08
2022-12-01T03:34:59.592Z,0.17
2022-12-01T03:40:06.392Z,0.19
2022-12-01T03:45:16.147Z,0.21
2022-12-01T03:50:18.970Z,0.17
2022-12-01T03:55:24.847Z,0.36
2022-12-01T04:00:27.098Z,0.51
2022-12-01T04:05:29.856Z,0.59
2022-12-01T04:10:33.102Z,0.57
2022-12-01T04:15:35.181Z,0.52
2022-12-01T04:20:37.318Z,0.49
2022-12-01T04:25:39.387Z,0.34
2022-12-01T04:30:41.459Z,0.29
2022-12-01T04:35:43.567Z,0.03
2022-12-01T04:40:45.649Z,-0.15
2022-12-01T04:45:48.369Z,-0.19
2022-12-01T04:50:50.540Z,-0.33
2022-12-01T04:55:52.651Z,-0.42
2022-12-01T05:00:54.933Z,-0.39
2022-12-01T05:06:09.362Z,-0.27
2022-12-01T05:11:13.389Z,-0.06
2022-12-01T05:16:22.317Z,-0.31
2022-12-01T05:21:24.501Z,-0.43
2022-12-01T05:26:26.599Z,-0.51
2022-12-01T05:31:28.877Z,-0.50
2022-12-01T05:36:31.575Z,-0.63
2022-12-01T05:41:33.670Z,-0.59
2022-12-01T05:46:35.769Z,-0.66
2022-12-01T05:51:37.851Z,-0.67
2022-12-01T05:56:39.964Z,-0.65
2022-12-01T06:01:42.141Z,-0.69
2022-12-01T06:06:44.570Z,-0.58
2022-12-01T06:11:51.220Z,-0.40
2022-12-01T06:16:54.572Z,-0.49
2022-12-01T06:22:03.698Z,-0.39
2022-12-01T06:27:06.064Z,-0.28
2022-12-01T06:32:08.207Z,-0.30
2022-12-01T06:37:11.427Z,-0.50
2022-12-01T06:42:13.596Z,-0.44
2022-12-01T06:47:16.019Z,-0.33
2022-12-01T06:52:18.175Z,-0.20
2022-12-01T06:57:20.403Z,-0.04
2022-12-01T07:02:23.169Z,-0.11
2022-12-01T07:07:25.485Z,-0.02
2022-12-01T07:12:31.607Z,0.05
2022-12-01T07:17:34.701Z,0.05
2022-12-01T07:22:36.797Z,0.19
2022-12-01T07:27:38.889Z,0.30
2022-12-01T07:32:40.998Z,0.50
2022-12-01T07:37:43.089Z,0.64
2022-12-01T07:42:45.205Z,0.80
2022-12-01T07:47:47.298Z,0.86
2022-12-01T07:52:50.927Z,1.03
2022-12-01T07:57:53.683Z,1.10
2022-12-01T08:02:55.797Z,1.26
2022-12-01T08:07:57.916Z,1.32
2022-12-01T08:13:00.147Z,1.43
2022-12-01T08:18:02.503Z,1.61
2022-12-01T08:23:04.938Z,1.87
2022-12-01T08:28:07.143Z,2.07
2022-12-01T08:33:09.241Z,2.19
2022-12-01T08:38:12.242Z,2.43
2022-12-01T08:43:34.796Z,2.58
2022-12-01T08:48:36.865Z,2.74
2022-12-01T08:53:45.524Z,2.96
2022-12-01T08:58:48.057Z,3.08
2022-12-01T09:04:05.647Z,3.35
2022-12-01T09:09:12.561Z,3.51
2022-12-01T09:14:16.927Z,3.62
2022-12-01T09:19:23.956Z,3.89
2022-12-01T09:24:26.650Z,4.05
2022-12-01T09:29:29.355Z,4.45
2022-12-01T09:34:31.552Z,4.76
2022-12-01T09:39:33.734Z,5.21
2022-12-01T09:44:44.044Z,8.95
2022-12-01T09:50:06.961Z,7.38
2022-12-01T09:55:13.744Z,7.60
2022-12-01T10:00:21.131Z,10.54
2022-12-01T10:05:26.858Z,12.66
2022-12-01T10:10:34.547Z,14.76
2022-12-01T10:16:08.835Z,15.05
2022-12-01T10:21:40.155Z,15.90
2022-12-01T10:27:04.105Z,15.54
2022-12-01T10:32:20.563Z,17.52
2022-12-01T10:37:26.380Z,17.50
2022-12-01T10:42:36.862Z,18.12
2022-12-01T10:48:15.915Z,18.50
2022-12-01T10:53:28.288Z,22.41
2022-12-01T10:58:33.857Z,23.40
2022-12-01T11:03:36.942Z,21.48
2022-12-01T11:08:40.668Z,23.63
2022-12-01T11:13:43.375Z,21.36
2022-12-01T11:18:45.514Z,25.56
2022-12-01T11:23:50.568Z,26.06
2022-12-01T11:29:04.742Z,25.43
2022-12-01T11:34:20.652Z,23.27
2022-12-01T11:39:25.510Z,17.92
2022-12-01T11:44:50.356Z,16.67
2022-12-01T11:50:00.076Z,18.28
2022-12-01T11:55:11.166Z,16.45
2022-12-01T12:00:13.860Z,18.69
2022-12-01T12:05:40.374Z,18.79
2022-12-01T12:11:19.452Z,20.91
2022-12-01T12:16:56.752Z,17.94
2022-12-01T12:22:10.962Z,16.16
2022-12-01T12:27:34.886Z,16.05
2022-12-01T12:33:04.309Z,14.92
2022-12-01T12:38:15.457Z,19.30
2022-12-01T12:43:56.668Z,22.70
2022-12-01T12:49:25.668Z,18.22
2022-12-01T12:54:33.809Z,16.66
2022-12-01T12:59:52.009Z,15.94
2022-12-01T13:05:16.857Z,15.11
2022-12-01T13:10:35.740Z,14.92
2022-12-01T13:15:39.093Z,15.90
2022-12-01T13:20:41.727Z,14.82
2022-12-01T13:25:47.842Z,14.79
2022-12-01T13:31:18.184Z,14.07
2022-12-01T13:36:45.721Z,11.95
2022-12-01T13:41:45.468Z,10.90
2022-12-01T13:46:47.613Z,10.52
2022-12-01T13:52:21.077Z,10.72
2022-12-01T13:57:27.805Z,10.67
2022-12-01T14:02:33.141Z,11.06
2022-12-01T14:07:38.321Z,10.74
2022-12-01T14:12:46.020Z,10.45
2022-12-01T14:17:58.391Z,9.89
2022-12-01T14:23:36.223Z,9.35
2022-12-01T14:29:01.491Z,8.71
2022-12-01T14:34:13.155Z,7.90
2022-12-01T14:39:35.174Z,7.30
2022-12-01T14:44:49.797Z,6.74
2022-12-01T14:50:11.897Z,6.37
2022-12-01T14:55:21.151Z,6.03
2022-12-01T15:00:25.116Z,5.68
2022-12-01T15:05:29.557Z,5.53
2022-12-01T15:10:37.191Z,5.36
2022-12-01T15:15:53.432Z,5.16
2022-12-01T15:21:03.940Z,5.13
2022-12-01T15:26:06.989Z,5.05
2022-12-01T15:31:13.092Z,4.95
2022-12-01T15:36:15.766Z,4.77
2022-12-01T15:41:30.663Z,4.79
2022-12-01T15:46:36.970Z,4.94
2022-12-01T15:51:39.084Z,4.83
2022-12-01T15:56:41.461Z,4.75
2022-12-01T16:01:44.665Z,4.68
2022-12-01T16:07:16.038Z,4.62
2022-12-01T16:12:18.063Z,4.57
2022-12-01T16:17:20.835Z,4.44
2022-12-01T16:22:23.139Z,4.38
2022-12-01T16:27:30.385Z,4.22
2022-12-01T16:32:35.155Z,4.18
2022-12-01T16:37:37.253Z,4.16
2022-12-01T16:42:39.733Z,4.15
2022-12-01T16:47:42.719Z,4.08
2022-12-01T16:52:45.892Z,4.06
2022-12-01T16:57:48.296Z,4.01
2022-12-01T17:02:51.016Z,3.97
2022-12-01T17:07:53.466Z,4.00
2022-12-01T17:12:55.612Z,3.89
2022-12-01T17:17:57.736Z,3.84
2022-12-01T17:22:59.885Z,3.76
2022-12-01T17:28:02.027Z,3.78
2022-12-01T17:33:04.305Z,3.70
2022-12-01T17:38:06.860Z,3.58
2022-12-01T17:43:09.333Z,3.54
2022-12-01T17:48:11.425Z,3.53
2022-12-01T17:53:13.574Z,3.37
2022-12-01T17:58:18.215Z,3.22
2022-12-01T18:03:21.407Z,3.06
2022-12-01T18:08:25.552Z,2.92
2022-12-01T18:13:27.969Z,2.99
2022-12-01T18:18:30.133Z,2.85
2022-12-01T18:23:32.378Z,2.84
2022-12-01T18:28:35.136Z,2.71
2022-12-01T18:33:40.242Z,2.64
2022-12-01T18:38:42.328Z,2.57
2022-12-01T18:43:45.102Z,2.58
2022-12-01T18:48:49.457Z,2.85
2022-12-01T18:53:54.614Z,3.00
2022-12-01T18:58:58.760Z,3.07
2022-12-01T19:04:02.066Z,2.92
2022-12-01T19:09:06.301Z,2.78
2022-12-01T19:14:16.425Z,2.91
2022-12-01T19:19:18.776Z,3.31
2022-12-01T19:24:20.999Z,3.40
2022-12-01T19:29:23.262Z,3.43
2022-12-01T19:34:26.072Z,3.44
2022-12-01T19:39:28.428Z,3.40
2022-12-01T19:44:31.837Z,2.98
2022-12-01T19:49:36.547Z,2.75
2022-12-01T19:54:39.292Z,2.50
2022-12-01T19:59:41.536Z,2.35
2022-12-01T20:04:43.773Z,2.23
2022-12-01T20:09:49.910Z,2.16
2022-12-01T20:14:52.716Z,2.05
2022-12-01T20:19:55.203Z,1.94
2022-12-01T20:24:57.344Z,1.82
2022-12-01T20:29:59.857Z,1.67
2022-12-01T20:35:02.055Z,1.42
2022-12-01T20:40:04.665Z,1.38
2022-12-01T20:45:07.527Z,1.28
2022-12-01T20:50:10.269Z,1.12
2022-12-01T20:55:12.388Z,1.01
2022-12-01T21:00:15.067Z,0.89
2022-12-01T21:05:17.231Z,0.72
2022-12-01T21:10:20.358Z,0.76
2022-12-01T21:15:31.411Z,0.71
2022-12-01T21:20:39.312Z,0.61
2022-12-01T21:25:42.610Z,0.44
2022-12-01T21:30:46.334Z,0.49
2022-12-01T21:35:51.761Z,0.47
2022-12-01T21:40:54.250Z,0.38
2022-12-01T21:46:00.718Z,0.27
2022-12-01T21:51:12.178Z,0.19
2022-12-01T21:56:34.521Z,0.20
2022-12-01T22:01:36.837Z,0.16
2022-12-01T22:06:43.250Z,0.10
2022-12-01T22:11:49.371Z,0.02
2022-12-01T22:17:09.134Z,0.31
2022-12-01T22:22:11.688Z,0.40
2022-12-01T22:27:39.276Z,0.65
2022-12-01T22:32:56.193Z,0.85
2022-12-01T22:37:59.828Z,0.93
2022-12-01T22:43:17.274Z,1.14
2022-12-01T22:48:22.263Z,1.33
2022-12-01T22:53:31.317Z,1.43
2022-12-01T22:58:39.838Z,1.61
2022-12-01T23:03:41.919Z,1.76
2022-12-01T23:08:44.017Z,1.85
2022-12-01T23:13:46.091Z,1.86
2022-12-01T23:18:48.139Z,1.88
2022-12-01T23:23:50.259Z,1.97
2022-12-01T23:28:52.339Z,2.04
2022-12-01T23:33:54.488Z,2.11
2022-12-01T23:39:01.446Z,2.13
2022-12-01T23:44:40.731Z,2.18
2022-12-01T23:49:44.785Z,2.35
2022-12-01T23:54:47.403Z,2.34
2022-12-01T23:59:56.298Z,2.40
